Time;durP1;ratioP1;P1;durP2;ratioP2;P2;SDS_P1;SDS_P2;PMS_P1;PMS_P2;Temp;Humidity;BMP_temperature;BMP_pressure;BME280_temperature;BME280_humidity;BME280_pressure;Samples;Min_cycle;Max_cycle;Signal;HPM_P1;HPM_P2
2021/03/17 00:02:08;;;;;;;13.90;4.28;;;;;;;;;;4277692;33;20412;-83
2021/03/17 00:04:54;;;;;;;19.83;14.85;;;;;;;;;;4275732;33;20041;-83
2021/03/17 00:07:41;;;;;;;15.85;4.07;;;;;;;;;;4276071;33;20050;-83
2021/03/17 00:10:29;;;;;;;18.52;3.87;;;;;;;;;;4277948;33;20929;-84
2021/03/17 00:13:16;;;;;;;16.90;3.92;;;;;;;;;;4269387;33;20089;-84
2021/03/17 00:16:03;;;;;;;8.90;3.20;;;;;;;;;;4281727;33;20080;-83
2021/03/17 00:18:51;;;;;;;12.73;3.53;;;;;;;;;;4281248;33;20516;-83
2021/03/17 00:21:37;;;;;;;18.75;6.75;;;;;;;;;;4282182;33;20086;-83
2021/03/17 00:24:25;;;;;;;13.62;4.22;;;;;;;;;;4279002;33;20125;-83
2021/03/17 00:27:12;;;;;;;10.80;3.22;;;;;;;;;;4282464;33;20072;-84
2021/03/17 00:29:58;;;;;;;14.02;4.03;;;;;;;;;;4283533;33;20065;-83
2021/03/17 00:32:46;;;;;;;19.20;7.53;;;;;;;;;;4279320;33;20108;-83
2021/03/17 00:35:33;;;;;;;10.02;3.55;;;;;;;;;;4267683;33;20375;-83
2021/03/17 00:38:19;;;;;;;15.25;7.85;;;;;;;;;;4280506;33;20045;-83
2021/03/17 00:41:06;;;;;;;14.60;3.60;;;;;;;;;;4284959;33;20061;-84
2021/03/17 00:43:52;;;;;;;12.77;3.50;;;;;;;;;;4276308;33;20101;-84
2021/03/17 00:46:38;;;;;;;15.30;3.75;;;;;;;;;;4274864;33;20069;-83
2021/03/17 00:49:07;;;;;;;14.87;3.45;;;;;;;;;;4280182;33;20610;-83
2021/03/17 00:51:35;;;;;;;14.60;4.57;;;;;;;;;;4270738;33;20097;-83
2021/03/17 00:54:22;;;;;;;22.13;11.57;;;;;;;;;;4271912;33;20451;-83
2021/03/17 00:56:51;;;;;;;14.07;4.05;;;;;;;;;;4273754;33;20440;-84
2021/03/17 00:59:19;;;;;;;16.87;4.22;;;;;;;;;;4265619;33;20130;-83
2021/03/17 01:01:47;;;;;;;15.93;4.10;;;;;;;;;;4267040;33;20148;-83
2021/03/17 01:04:16;;;;;;;12.32;3.97;;;;;;;;;;4263967;33;20096;-83
2021/03/17 01:06:44;;;;;;;11.55;3.37;;;;;;;;;;4271416;33;20105;-83
2021/03/17 01:09:12;;;;;;;13.95;4.10;;;;;;;;;;4280389;33;20464;-83
2021/03/17 01:11:41;;;;;;;12.20;3.50;;;;;;;;;;4278582;33;20066;-82
2021/03/17 01:14:10;;;;;;;15.02;4.25;;;;;;;;;;4278821;33;20045;-84
2021/03/17 01:16:39;;;;;;;12.07;3.70;;;;;;;;;;4273998;33;20082;-83
2021/03/17 01:19:08;;;;;;;10.68;4.03;;;;;;;;;;4268722;33;20104;-83
2021/03/17 01:21:36;;;;;;;22.17;4.57;;;;;;;;;;4279623;33;20136;-83
2021/03/17 01:24:04;;;;;;;13.77;4.53;;;;;;;;;;4276387;33;20077;-83
2021/03/17 01:26:32;;;;;;;14.27;4.12;;;;;;;;;;4283360;33;20062;-83
2021/03/17 01:29:00;;;;;;;19.55;4.80;;;;;;;;;;4270366;33;20103;-83
2021/03/17 01:31:28;;;;;;;10.63;3.78;;;;;;;;;;4275861;33;20049;-83
2021/03/17 01:33:56;;;;;;;15.73;4.10;;;;;;;;;;4278833;33;20480;-83
2021/03/17 01:36:25;;;;;;;17.83;4.43;;;;;;;;;;4281851;33;20105;-84
2021/03/17 01:38:53;;;;;;;14.77;4.15;;;;;;;;;;4275188;33;20087;-83
2021/03/17 01:41:21;;;;;;;15.65;4.22;;;;;;;;;;4270007;33;20424;-83
2021/03/17 01:43:49;;;;;;;11.77;3.62;;;;;;;;;;4276230;33;20419;-84
2021/03/17 01:46:17;;;;;;;14.63;4.35;;;;;;;;;;4276532;33;20146;-83
2021/03/17 01:48:46;;;;;;;13.35;3.78;;;;;;;;;;4265651;33;20177;-83
2021/03/17 01:51:15;;;;;;;15.05;4.15;;;;;;;;;;4280659;33;20099;-83
2021/03/17 01:53:43;;;;;;;10.75;3.70;;;;;;;;;;4279290;33;20116;-83
2021/03/17 01:56:11;;;;;;;11.38;3.72;;;;;;;;;;4272122;33;20120;-83
2021/03/17 01:58:40;;;;;;;16.15;4.95;;;;;;;;;;4273678;33;20492;-83
2021/03/17 02:01:09;;;;;;;13.15;3.75;;;;;;;;;;4277746;33;20417;-83
2021/03/17 02:03:38;;;;;;;14.55;3.87;;;;;;;;;;4275251;33;20658;-83
2021/03/17 02:06:06;;;;;;;14.32;3.97;;;;;;;;;;4279420;33;20139;-83
2021/03/17 02:08:35;;;;;;;15.70;4.05;;;;;;;;;;4275070;33;20077;-83
2021/03/17 02:11:04;;;;;;;20.83;4.00;;;;;;;;;;4278870;33;20065;-83
2021/03/17 02:13:51;;;;;;;13.82;4.25;;;;;;;;;;4272473;33;20065;-83
2021/03/17 02:16:32;;;;;;;14.20;4.28;;;;;;;;;;4269047;33;20096;-83
2021/03/17 02:19:21;;;;;;;15.80;4.37;;;;;;;;;;4269958;33;20081;-83
2021/03/17 02:22:07;;;;;;;15.95;4.50;;;;;;;;;;4279745;33;20380;-83
2021/03/17 02:24:41;;;;;;;16.42;4.78;;;;;;;;;;4274715;33;20108;-83
2021/03/17 02:27:28;;;;;;;16.40;3.97;;;;;;;;;;4261770;33;20148;-84
2021/03/17 02:30:02;;;;;;;18.83;4.30;;;;;;;;;;4277577;33;20057;-83
2021/03/17 02:32:56;;;;;;;19.58;4.43;;;;;;;;;;4273345;33;20097;-84
2021/03/17 02:35:28;;;;;;;16.35;3.65;;;;;;;;;;4272230;33;20104;-83
2021/03/17 02:37:57;;;;;;;28.15;18.60;;;;;;;;;;4276715;33;20200;-83
2021/03/17 02:40:33;;;;;;;16.80;4.32;;;;;;;;;;4279784;33;20068;-83
2021/03/17 02:43:01;;;;;;;19.83;5.12;;;;;;;;;;4281431;33;20045;-83
2021/03/17 02:45:55;;;;;;;16.58;4.93;;;;;;;;;;4276530;33;20088;-84
2021/03/17 02:48:26;;;;;;;17.02;4.32;;;;;;;;;;4275009;33;20061;-83
2021/03/17 02:50:55;;;;;;;18.10;4.00;;;;;;;;;;4270400;33;20104;-83
2021/03/17 02:53:26;;;;;;;20.30;3.87;;;;;;;;;;4278822;33;20108;-83
2021/03/17 02:56:01;;;;;;;21.80;4.57;;;;;;;;;;4275183;33;20465;-83
2021/03/17 02:58:29;;;;;;;17.48;4.60;;;;;;;;;;4278687;33;20068;-83
2021/03/17 03:00:58;;;;;;;12.52;4.00;;;;;;;;;;4285159;33;20132;-83
2021/03/17 03:03:29;;;;;;;11.45;4.15;;;;;;;;;;4264665;33;20824;-83
2021/03/17 03:05:58;;;;;;;17.52;9.85;;;;;;;;;;4277611;33;20104;-83
2021/03/17 03:08:27;;;;;;;15.88;4.43;;;;;;;;;;4277516;33;20077;-83
2021/03/17 03:16:59;;;;;;;15.35;3.92;;;;;;;;;;4306164;33;20630;-95
2021/03/17 04:48:09;;;;;;;10.00;3.53;;;;;;;;;;4535242;29;20404;-86
2021/03/17 04:51:45;;;;;;;12.20;3.87;;;;;;;;;;4066189;35;20085;-88
2021/03/17 04:54:40;;;;;;;12.02;3.17;;;;;;;;;;4062666;35;20113;-86
2021/03/17 05:13:50;;;;;;;;;;;;;;;;;;;;;
2021/03/17 05:26:30;;;;;;;19.77;4.03;;;;;;;;;;4087266;34;20305;-84
2021/03/17 05:37:52;;;;;;;14.80;4.05;;;;;;;;;;4065989;34;20225;-85
2021/03/17 05:44:58;;;;;;;;;;;;;;;;;;;;;
2021/03/17 05:48:32;;;;;;;10.10;3.47;;;;;;;;;;4082516;34;20058;-86
2021/03/17 05:52:20;;;;;;;11.90;3.47;;;;;;;;;;4066059;35;20072;-85
2021/03/17 05:55:15;;;;;;;11.57;3.60;;;;;;;;;;4066495;35;20076;-88
2021/03/17 06:02:32;;;;;;;12.70;3.60;;;;;;;;;;4062047;35;20066;-86
2021/03/17 06:05:52;;;;;;;9.98;3.53;;;;;;;;;;4056175;35;20088;-87
2021/03/17 06:16:25;;;;;;;11.80;3.20;;;;;;;;;;4070005;35;20096;-87
2021/03/17 06:19:21;;;;;;;11.88;3.50;;;;;;;;;;4035624;35;21535;-87
2021/03/17 06:22:48;;;;;;;13.40;3.70;;;;;;;;;;4024389;35;20113;-85
2021/03/17 06:30:23;;;;;;;10.60;3.80;;;;;;;;;;4018062;35;20162;-87
2021/03/17 06:33:55;;;;;;;10.15;2.83;;;;;;;;;;3967311;35;20394;-86
2021/03/17 06:40:57;;;;;;;13.45;3.60;;;;;;;;;;4063730;35;20989;-86
2021/03/17 06:47:29;;;;;;;10.57;3.72;;;;;;;;;;4093885;34;20117;-86
2021/03/17 06:50:22;;;;;;;11.15;3.15;;;;;;;;;;4078438;35;20407;-87
2021/03/17 06:53:42;;;;;;;10.07;3.22;;;;;;;;;;4072822;35;20081;-87
2021/03/17 06:56:27;;;;;;;11.75;3.40;;;;;;;;;;4075975;34;20089;-87
2021/03/17 06:59:37;;;;;;;10.15;3.35;;;;;;;;;;4071078;35;20054;-87
2021/03/17 07:02:21;;;;;;;9.00;3.20;;;;;;;;;;4084880;34;20441;-84
2021/03/17 07:18:47;;;;;;;;;;;;;;;;;;;;;
2021/03/17 07:40:09;;;;;;;;;;;;;;;;;;;;;
2021/03/17 07:52:04;;;;;;;;;;;;;;;;;;;;;
2021/03/17 08:00:22;;;;;;;11.00;3.15;;;;;;;;;;4087136;34;20123;-87
2021/03/17 08:03:20;;;;;;;76.62;69.80;;;;;;;;;;4081270;34;20111;-88
2021/03/17 08:06:15;;;;;;;23.98;14.63;;;;;;;;;;4085751;35;20065;-87
2021/03/17 08:09:42;;;;;;;;;;;;;;;;;;;;;
2021/03/17 08:16:59;;;;;;;28.67;25.67;;;;;;;;;;4026299;35;20102;-87
2021/03/17 08:24:30;;;;;;;8.40;2.65;;;;;;;;;;4016194;35;20075;-85
2021/03/17 08:31:40;;;;;;;12.30;5.93;;;;;;;;;;4032208;35;20032;-90
2021/03/17 08:35:00;;;;;;;23.60;21.42;;;;;;;;;;4023648;35;20122;-87
2021/03/17 08:37:47;;;;;;;7.10;2.42;;;;;;;;;;4052966;35;20134;-87
2021/03/17 08:40:30;;;;;;;7.65;2.55;;;;;;;;;;4042213;35;20525;-83
2021/03/17 08:43:22;;;;;;;9.60;2.67;;;;;;;;;;4061576;35;20142;-87
2021/03/17 08:45:50;;;;;;;8.80;7.75;;;;;;;;;;4089901;35;20175;-86
2021/03/17 08:48:42;;;;;;;12.30;10.55;;;;;;;;;;4080511;35;20162;-87
2021/03/17 08:51:12;;;;;;;10.95;5.43;;;;;;;;;;4085143;35;20439;-91
2021/03/17 08:54:01;;;;;;;7.37;2.40;;;;;;;;;;4078630;34;20131;-87
2021/03/17 08:56:48;;;;;;;6.15;2.30;;;;;;;;;;4084479;34;20084;-88
2021/03/17 08:59:22;;;;;;;8.98;2.37;;;;;;;;;;4098705;34;20066;-86
2021/03/17 09:01:53;;;;;;;9.07;2.10;;;;;;;;;;4079127;34;20100;-86
2021/03/17 09:04:45;;;;;;;5.82;2.30;;;;;;;;;;4081517;35;20097;-85
2021/03/17 09:07:17;;;;;;;6.72;2.50;;;;;;;;;;4098699;34;20121;-87
2021/03/17 09:10:14;;;;;;;9.27;2.30;;;;;;;;;;4088773;34;20139;-86
2021/03/17 09:12:50;;;;;;;8.80;2.62;;;;;;;;;;4091150;35;20547;-85
2021/03/17 09:15:24;;;;;;;4.75;4.25;;;;;;;;;;4076637;35;20070;-87
2021/03/17 09:18:08;;;;;;;7.12;5.03;;;;;;;;;;4080274;34;20605;-86
2021/03/17 09:20:45;;;;;;;7.32;5.12;;;;;;;;;;4084123;35;20058;-88
2021/03/17 09:23:38;;;;;;;8.85;4.60;;;;;;;;;;4088730;35;20507;-90
2021/03/17 09:26:10;;;;;;;7.32;2.00;;;;;;;;;;4072837;34;20083;-87
2021/03/17 09:29:02;;;;;;;20.42;3.10;;;;;;;;;;4070457;34;20097;-85
2021/03/17 09:31:41;;;;;;;;;;;;;;;;;;;;;
2021/03/17 09:34:42;;;;;;;4.82;2.47;;;;;;;;;;4075277;34;20076;-89
2021/03/17 09:37:35;;;;;;;6.10;1.80;;;;;;;;;;4074664;35;20105;-87
2021/03/17 09:40:08;;;;;;;6.35;1.80;;;;;;;;;;4092010;34;20115;-88
2021/03/17 09:42:59;;;;;;;9.70;2.40;;;;;;;;;;4084026;34;20096;-89
2021/03/17 09:45:34;;;;;;;5.70;2.17;;;;;;;;;;4084270;34;20109;-84
2021/03/17 09:48:06;;;;;;;11.75;2.60;;;;;;;;;;4074861;34;20081;-85
2021/03/17 09:50:36;;;;;;;4.93;1.95;;;;;;;;;;4096885;34;20068;-90
2021/03/17 09:53:12;;;;;;;9.80;2.40;;;;;;;;;;4087415;35;20104;-88
2021/03/17 09:55:58;;;;;;;4.40;1.98;;;;;;;;;;4089270;34;20627;-91
2021/03/17 09:58:43;;;;;;;4.20;2.05;;;;;;;;;;4086899;34;20062;-91
2021/03/17 10:01:15;;;;;;;6.95;2.10;;;;;;;;;;4081039;34;20097;-91
2021/03/17 10:03:45;;;;;;;7.47;1.83;;;;;;;;;;4079713;35;20058;-90
2021/03/17 10:06:15;;;;;;;5.25;1.83;;;;;;;;;;4082496;35;20179;-89
2021/03/17 10:08:54;;;;;;;6.93;2.20;;;;;;;;;;4087102;34;20098;-88
2021/03/17 10:11:26;;;;;;;7.28;2.20;;;;;;;;;;4079839;34;20070;-88
2021/03/17 10:13:55;;;;;;;5.53;1.90;;;;;;;;;;4084829;34;20127;-87
2021/03/17 10:16:24;;;;;;;6.65;1.87;;;;;;;;;;4084570;34;20053;-86
2021/03/17 10:18:53;;;;;;;5.62;2.67;;;;;;;;;;4081885;34;20127;-87
2021/03/17 10:21:27;;;;;;;6.32;2.20;;;;;;;;;;4090304;34;20109;-88
2021/03/17 10:23:59;;;;;;;16.85;2.40;;;;;;;;;;4082262;35;20124;-88
2021/03/17 10:26:36;;;;;;;8.20;2.55;;;;;;;;;;4079290;35;20393;-87
2021/03/17 10:29:10;;;;;;;4.32;1.80;;;;;;;;;;4083334;34;20065;-89
2021/03/17 10:31:44;;;;;;;6.12;2.05;;;;;;;;;;4082797;34;20058;-88
2021/03/17 10:34:43;;;;;;;6.18;1.95;;;;;;;;;;4095799;34;20070;-88
2021/03/17 10:37:23;;;;;;;5.70;2.10;;;;;;;;;;4083851;35;20070;-88
2021/03/17 10:40:34;;;;;;;8.10;2.17;;;;;;;;;;4087973;34;20152;-87
2021/03/17 10:43:43;;;;;;;6.45;2.17;;;;;;;;;;4077191;35;20125;-84
2021/03/17 10:46:37;;;;;;;6.22;2.20;;;;;;;;;;4081535;35;20306;-88
2021/03/17 10:49:26;;;;;;;6.30;2.25;;;;;;;;;;4097102;34;20072;-89
2021/03/17 10:52:11;;;;;;;5.43;2.50;;;;;;;;;;4095647;34;20113;-87
2021/03/17 10:55:27;;;;;;;5.85;2.45;;;;;;;;;;4084702;34;20532;-91
2021/03/17 10:58:30;;;;;;;5.78;2.10;;;;;;;;;;4082874;34;20593;-87
2021/03/17 11:01:18;;;;;;;5.87;2.20;;;;;;;;;;4084438;34;20401;-86
2021/03/17 11:04:25;;;;;;;6.30;2.17;;;;;;;;;;4089469;35;20089;-87
2021/03/17 11:07:34;;;;;;;5.35;2.37;;;;;;;;;;4094878;34;20073;-89
2021/03/17 11:10:43;;;;;;;7.65;2.30;;;;;;;;;;4080305;35;20073;-88
2021/03/17 11:13:16;;;;;;;4.28;1.77;;;;;;;;;;4089143;35;20062;-90
2021/03/17 11:15:46;;;;;;;4.93;1.98;;;;;;;;;;4096730;34;20121;-87
2021/03/17 11:18:34;;;;;;;5.53;2.42;;;;;;;;;;4083372;34;20062;-87
2021/03/17 11:21:05;;;;;;;6.37;2.00;;;;;;;;;;4094428;34;20656;-90
2021/03/17 11:23:36;;;;;;;8.75;2.58;;;;;;;;;;4081155;35;20383;-87
2021/03/17 11:26:09;;;;;;;4.68;1.75;;;;;;;;;;4073487;35;20369;-88
2021/03/17 11:28:39;;;;;;;5.78;2.42;;;;;;;;;;4090302;34;20574;-90
2021/03/17 11:31:18;;;;;;;6.28;2.20;;;;;;;;;;4087287;34;20062;-89
2021/03/17 11:33:59;;;;;;;10.45;2.22;;;;;;;;;;4080146;34;20057;-89
2021/03/17 11:36:31;;;;;;;6.95;2.30;;;;;;;;;;4088572;35;20155;-88
2021/03/17 11:39:05;;;;;;;6.75;1.90;;;;;;;;;;4099188;34;20516;-88
2021/03/17 11:41:36;;;;;;;6.68;2.42;;;;;;;;;;4088558;34;20073;-88
2021/03/17 11:44:06;;;;;;;8.77;2.40;;;;;;;;;;4091385;34;20065;-86
2021/03/17 11:46:34;;;;;;;5.28;2.05;;;;;;;;;;4084510;35;20139;-88
2021/03/17 11:49:10;;;;;;;6.53;2.30;;;;;;;;;;4099856;34;20464;-88
2021/03/17 11:51:43;;;;;;;6.20;1.98;;;;;;;;;;4091475;34;20096;-87
2021/03/17 11:54:12;;;;;;;6.37;2.40;;;;;;;;;;4081009;34;20072;-88
2021/03/17 11:56:44;;;;;;;13.45;2.45;;;;;;;;;;4083949;34;20236;-87
2021/03/17 11:59:20;;;;;;;12.68;2.50;;;;;;;;;;4093890;35;20061;-87
2021/03/17 12:01:49;;;;;;;7.22;2.30;;;;;;;;;;4089753;34;20158;-87
2021/03/17 12:04:18;;;;;;;6.57;2.47;;;;;;;;;;4075596;35;20502;-87
2021/03/17 12:06:57;;;;;;;4.20;1.95;;;;;;;;;;4091873;34;20065;-86
2021/03/17 12:09:27;;;;;;;8.38;2.50;;;;;;;;;;4096301;34;20054;-89
2021/03/17 12:11:58;;;;;;;9.38;2.50;;;;;;;;;;4087376;34;20548;-87
2021/03/17 12:14:26;;;;;;;9.82;2.62;;;;;;;;;;4091563;34;20128;-88
2021/03/17 12:16:55;;;;;;;4.60;2.20;;;;;;;;;;4084353;35;20321;-88
2021/03/17 12:19:23;;;;;;;7.20;2.40;;;;;;;;;;4089313;34;20057;-87
2021/03/17 12:21:56;;;;;;;5.43;2.20;;;;;;;;;;4092168;34;20446;-88
2021/03/17 12:24:26;;;;;;;6.87;2.30;;;;;;;;;;4079674;35;20299;-87
2021/03/17 12:26:54;;;;;;;6.62;2.40;;;;;;;;;;4089632;34;20114;-88
2021/03/17 12:30:06;;;;;;;13.05;2.90;;;;;;;;;;4091717;34;20105;-87
2021/03/17 12:32:23;;;;;;;8.85;2.12;;;;;;;;;;4085219;35;20141;-87
2021/03/17 12:34:56;;;;;;;7.45;2.15;;;;;;;;;;4092068;35;20069;-87
2021/03/17 12:37:25;;;;;;;7.18;2.20;;;;;;;;;;4091795;35;20564;-88
2021/03/17 12:39:55;;;;;;;5.32;2.00;;;;;;;;;;4112310;34;20112;-87
2021/03/17 12:42:24;;;;;;;10.70;2.60;;;;;;;;;;4088354;34;20568;-89
2021/03/17 12:44:52;;;;;;;9.98;2.53;;;;;;;;;;4087234;34;20393;-86
2021/03/17 12:47:22;;;;;;;8.18;2.20;;;;;;;;;;4081623;35;20066;-87
2021/03/17 12:49:56;;;;;;;6.55;2.20;;;;;;;;;;4094899;34;20133;-86
2021/03/17 12:52:29;;;;;;;4.70;2.00;;;;;;;;;;4084636;35;20555;-88
2021/03/17 12:54:58;;;;;;;7.10;2.28;;;;;;;;;;4089727;34;20270;-87
2021/03/17 12:57:35;;;;;;;6.30;2.10;;;;;;;;;;4091793;35;20046;-87
2021/03/17 13:00:08;;;;;;;6.70;2.00;;;;;;;;;;4083983;35;20113;-87
2021/03/17 13:02:50;;;;;;;6.87;2.20;;;;;;;;;;4084243;34;20442;-87
2021/03/17 13:05:22;;;;;;;8.23;2.53;;;;;;;;;;4086691;34;20100;-88
2021/03/17 13:07:53;;;;;;;6.65;2.12;;;;;;;;;;4082628;34;20088;-85
2021/03/17 13:10:33;;;;;;;7.35;2.25;;;;;;;;;;4096462;34;20089;-86
2021/03/17 13:13:04;;;;;;;42.30;4.03;;;;;;;;;;4075033;35;20177;-85
2021/03/17 13:15:34;;;;;;;7.47;2.35;;;;;;;;;;4083505;35;20464;-86
2021/03/17 13:18:02;;;;;;;10.85;2.53;;;;;;;;;;4079717;34;20073;-85
2021/03/17 13:20:32;;;;;;;9.88;2.42;;;;;;;;;;4090142;35;20061;-85
2021/03/17 13:23:03;;;;;;;5.45;2.30;;;;;;;;;;4083949;35;20105;-86
2021/03/17 13:25:31;;;;;;;13.43;2.92;;;;;;;;;;4094864;34;20061;-88
2021/03/17 13:27:59;;;;;;;5.82;2.05;;;;;;;;;;4078680;34;20061;-86
2021/03/17 13:30:28;;;;;;;7.65;2.10;;;;;;;;;;4089500;34;20159;-87
2021/03/17 13:32:56;;;;;;;6.82;2.05;;;;;;;;;;4085672;35;20141;-86
2021/03/17 13:35:24;;;;;;;6.28;2.15;;;;;;;;;;4090393;35;20531;-86
2021/03/17 13:37:53;;;;;;;6.00;2.05;;;;;;;;;;4082369;34;20109;-86
2021/03/17 13:40:22;;;;;;;10.95;2.47;;;;;;;;;;4085431;35;20121;-87
2021/03/17 13:42:51;;;;;;;6.53;2.10;;;;;;;;;;4084388;35;20086;-86
2021/03/17 13:45:33;;;;;;;11.48;2.30;;;;;;;;;;4088053;35;20142;-84
2021/03/17 13:48:27;;;;;;;11.00;2.20;;;;;;;;;;4079412;34;20062;-86
2021/03/17 13:50:59;;;;;;;5.85;2.35;;;;;;;;;;4098150;34;20063;-86
2021/03/17 13:54:04;;;;;;;6.40;2.75;;;;;;;;;;4090319;35;20079;-86
2021/03/17 13:56:33;;;;;;;8.25;2.70;;;;;;;;;;4086630;34;20069;-86
2021/03/17 13:59:23;;;;;;;6.72;2.30;;;;;;;;;;4077819;35;20085;-85
2021/03/17 14:02:07;;;;;;;6.57;2.15;;;;;;;;;;4090375;34;20237;-87
2021/03/17 14:04:50;;;;;;;4.90;2.20;;;;;;;;;;4071634;35;20104;-85
2021/03/17 14:07:32;;;;;;;6.35;2.00;;;;;;;;;;4099180;34;20065;-86
2021/03/17 14:10:29;;;;;;;7.25;1.92;;;;;;;;;;4086932;34;20080;-87
2021/03/17 14:13:11;;;;;;;5.00;1.90;;;;;;;;;;4081596;35;20054;-85
2021/03/17 14:15:54;;;;;;;5.12;2.03;;;;;;;;;;4089229;34;20120;-86
2021/03/17 14:18:22;;;;;;;10.43;2.60;;;;;;;;;;4089025;34;20112;-87
2021/03/17 14:21:23;;;;;;;7.25;2.20;;;;;;;;;;4078102;35;20119;-86
2021/03/17 14:24:09;;;;;;;5.07;1.90;;;;;;;;;;4070827;35;20088;-86
2021/03/17 14:26:59;;;;;;;6.37;1.80;;;;;;;;;;4066748;35;20541;-85
2021/03/17 14:29:42;;;;;;;4.87;1.85;;;;;;;;;;4075175;35;20452;-88
2021/03/17 14:33:08;;;;;;;9.82;2.03;;;;;;;;;;4087862;34;20386;-86
2021/03/17 14:35:55;;;;;;;7.28;2.20;;;;;;;;;;4087949;35;20082;-86
2021/03/17 14:38:48;;;;;;;6.62;2.05;;;;;;;;;;4090731;34;20081;-85
2021/03/17 14:41:23;;;;;;;8.30;2.15;;;;;;;;;;4088693;35;20097;-85
2021/03/17 14:43:57;;;;;;;8.13;2.20;;;;;;;;;;4088210;34;20147;-85
2021/03/17 14:46:49;;;;;;;4.12;1.90;;;;;;;;;;4076662;35;20098;-85
2021/03/17 14:49:57;;;;;;;6.28;2.08;;;;;;;;;;4077720;34;20050;-84
2021/03/17 14:53:58;;;;;;;9.75;2.20;;;;;;;;;;4084239;34;20054;-86
2021/03/17 14:56:44;;;;;;;;;;;;;;;;;;;;;
2021/03/17 14:59:30;;;;;;;8.85;2.15;;;;;;;;;;4104081;34;20457;-83
2021/03/17 15:08:17;;;;;;;7.82;2.45;;;;;;;;;;4091846;34;20057;-85
2021/03/17 15:10:56;;;;;;;13.93;2.17;;;;;;;;;;4098809;34;20091;-84
2021/03/17 15:13:53;;;;;;;7.40;2.28;;;;;;;;;;4083007;35;20096;-85
2021/03/17 15:19:45;;;;;;;6.32;2.00;;;;;;;;;;4085892;34;20069;-84
2021/03/17 15:25:51;;;;;;;7.65;1.87;;;;;;;;;;4082889;34;20135;-85
2021/03/17 15:28:37;;;;;;;8.60;2.15;;;;;;;;;;4088815;34;20501;-84
2021/03/17 15:31:27;;;;;;;7.85;2.05;;;;;;;;;;4081708;35;20073;-84
2021/03/17 15:34:04;;;;;;;6.57;2.25;;;;;;;;;;4101136;34;20229;-85
2021/03/17 15:36:44;;;;;;;7.78;2.42;;;;;;;;;;4079078;35;20066;-84
2021/03/17 15:39:54;;;;;;;8.70;2.17;;;;;;;;;;4072573;35;20132;-84
2021/03/17 15:42:58;;;;;;;5.60;1.80;;;;;;;;;;4099536;34;20076;-86
2021/03/17 15:45:26;;;;;;;5.82;2.28;;;;;;;;;;4101942;35;20078;-84
2021/03/17 15:48:27;;;;;;;9.57;2.30;;;;;;;;;;4100466;34;20092;-84
2021/03/17 15:50:59;;;;;;;5.28;2.28;;;;;;;;;;4086864;35;20073;-85
2021/03/17 15:57:36;;;;;;;3.87;1.73;;;;;;;;;;4088840;34;20066;-85
2021/03/17 16:00:18;;;;;;;5.95;1.80;;;;;;;;;;4082416;35;20132;-84
2021/03/17 16:03:20;;;;;;;;;;;;;;;;;;;;;
2021/03/17 16:06:14;;;;;;;10.45;2.10;;;;;;;;;;4087588;35;20764;-85
2021/03/17 16:09:39;;;;;;;9.23;2.20;;;;;;;;;;4066100;35;20082;-85
2021/03/17 16:13:14;;;;;;;10.63;2.50;;;;;;;;;;4029615;35;20090;-85
2021/03/17 16:16:29;;;;;;;8.38;1.98;;;;;;;;;;4034679;35;20110;-86
2021/03/17 16:22:33;;;;;;;5.37;2.20;;;;;;;;;;4051667;35;20868;-87
2021/03/17 16:25:02;;;;;;;9.98;2.50;;;;;;;;;;4046324;35;20074;-87
2021/03/17 16:27:31;;;;;;;5.65;1.90;;;;;;;;;;4043053;35;20133;-88
2021/03/17 16:30:28;;;;;;;9.38;2.05;;;;;;;;;;4070463;35;20106;-85
2021/03/17 16:33:05;;;;;;;8.85;2.12;;;;;;;;;;4060162;35;20097;-87
2021/03/17 16:35:37;;;;;;;8.48;2.28;;;;;;;;;;4043295;35;20075;-87
2021/03/17 16:38:06;;;;;;;4.60;2.12;;;;;;;;;;4045316;35;20070;-86
2021/03/17 16:40:36;;;;;;;11.48;2.47;;;;;;;;;;4098101;34;20065;-85
2021/03/17 16:43:07;;;;;;;7.95;2.05;;;;;;;;;;4115119;34;20084;-86
2021/03/17 16:45:37;;;;;;;7.75;2.05;;;;;;;;;;4093776;34;20148;-85
2021/03/17 16:48:10;;;;;;;7.12;2.22;;;;;;;;;;4078359;34;20061;-86
2021/03/17 16:50:44;;;;;;;7.68;2.40;;;;;;;;;;4084175;35;20062;-86
2021/03/17 16:53:25;;;;;;;11.88;2.42;;;;;;;;;;4072332;35;20086;-86
2021/03/17 16:56:01;;;;;;;7.18;2.20;;;;;;;;;;4091443;34;20065;-86
2021/03/17 16:58:35;;;;;;;8.10;2.05;;;;;;;;;;4089980;34;20125;-86
2021/03/17 17:01:09;;;;;;;8.20;2.00;;;;;;;;;;4088151;35;20101;-87
2021/03/17 17:03:43;;;;;;;5.90;2.00;;;;;;;;;;4092247;34;20106;-84
2021/03/17 17:06:13;;;;;;;6.80;2.05;;;;;;;;;;4088612;34;20054;-86
2021/03/17 17:08:48;;;;;;;6.57;2.20;;;;;;;;;;4096315;34;20137;-87
2021/03/17 17:11:22;;;;;;;8.98;2.10;;;;;;;;;;4100328;34;20115;-90
2021/03/17 17:13:51;;;;;;;6.97;2.20;;;;;;;;;;4074514;34;20089;-91
2021/03/17 17:16:21;;;;;;;6.12;2.22;;;;;;;;;;4087926;35;20080;-84
2021/03/17 17:18:50;;;;;;;11.65;2.20;;;;;;;;;;4078718;35;20065;-84
2021/03/17 17:21:27;;;;;;;7.35;1.98;;;;;;;;;;4092177;35;20079;-89
2021/03/17 17:23:59;;;;;;;7.75;2.05;;;;;;;;;;4090135;34;20123;-86
2021/03/17 17:26:31;;;;;;;6.03;1.85;;;;;;;;;;4089318;35;20109;-83
2021/03/17 17:29:00;;;;;;;7.95;2.17;;;;;;;;;;4075010;35;20175;-86
2021/03/17 17:31:28;;;;;;;6.07;2.28;;;;;;;;;;4082557;35;20109;-83
2021/03/17 17:34:08;;;;;;;8.90;2.67;;;;;;;;;;4084130;34;20116;-86
2021/03/17 17:36:52;;;;;;;;;;;;;;;;;;;;;
2021/03/17 17:39:32;;;;;;;8.90;2.20;;;;;;;;;;4094072;35;20069;-85
2021/03/17 17:42:08;;;;;;;6.93;2.60;;;;;;;;;;4082212;34;20050;-83
2021/03/17 17:44:37;;;;;;;9.18;2.75;;;;;;;;;;4083861;35;20125;-85
2021/03/17 17:47:12;;;;;;;11.15;2.47;;;;;;;;;;4094448;34;20181;-86
2021/03/17 17:49:43;;;;;;;11.93;2.65;;;;;;;;;;4085674;34;20085;-84
2021/03/17 17:52:18;;;;;;;8.52;2.37;;;;;;;;;;4076330;35;20065;-86
2021/03/17 17:54:52;;;;;;;9.18;2.80;;;;;;;;;;4080833;35;20069;-84
2021/03/17 17:57:27;;;;;;;8.77;2.70;;;;;;;;;;4068214;35;20172;-85
2021/03/17 18:00:05;;;;;;;5.05;2.17;;;;;;;;;;4074268;35;20110;-85
2021/03/17 18:02:43;;;;;;;8.80;2.22;;;;;;;;;;4081592;35;20054;-86
2021/03/17 18:05:12;;;;;;;5.37;2.20;;;;;;;;;;4095241;34;20120;-83
2021/03/17 18:07:43;;;;;;;7.30;2.60;;;;;;;;;;4087444;34;20065;-85
2021/03/17 18:10:19;;;;;;;11.65;2.85;;;;;;;;;;4084537;34;20403;-85
2021/03/17 18:12:48;;;;;;;12.35;2.67;;;;;;;;;;4081860;35;20341;-85
2021/03/17 18:15:19;;;;;;;6.50;2.72;;;;;;;;;;4073348;35;20065;-84
2021/03/17 18:17:48;;;;;;;13.25;2.62;;;;;;;;;;4072380;35;20091;-85
2021/03/17 18:20:23;;;;;;;5.12;2.05;;;;;;;;;;4086400;35;20075;-84
2021/03/17 18:22:53;;;;;;;7.90;2.28;;;;;;;;;;4075814;35;20534;-87
2021/03/17 18:25:24;;;;;;;7.72;2.60;;;;;;;;;;4071578;35;20096;-83
2021/03/17 18:28:01;;;;;;;7.50;2.40;;;;;;;;;;4088284;34;20083;-85
2021/03/17 18:30:43;;;;;;;6.78;2.25;;;;;;;;;;4085374;34;20119;-84
2021/03/17 18:33:12;;;;;;;9.05;2.70;;;;;;;;;;4085960;35;20084;-85
2021/03/17 18:35:47;;;;;;;9.82;2.80;;;;;;;;;;4081800;35;20119;-85
2021/03/17 18:38:21;;;;;;;7.70;2.65;;;;;;;;;;4073601;34;20468;-84
2021/03/17 18:40:52;;;;;;;8.05;2.58;;;;;;;;;;4075942;35;20133;-84
2021/03/17 18:43:23;;;;;;;3.55;2.05;;;;;;;;;;4086560;35;20510;-87
2021/03/17 18:46:00;;;;;;;10.18;2.65;;;;;;;;;;4086575;35;20099;-84
2021/03/17 18:48:38;;;;;;;10.02;2.33;;;;;;;;;;4077736;34;20072;-83
2021/03/17 18:51:09;;;;;;;7.60;2.70;;;;;;;;;;4076940;35;20131;-85
2021/03/17 18:53:52;;;;;;;6.15;1.95;;;;;;;;;;4084348;35;20132;-85
2021/03/17 18:56:37;;;;;;;8.60;2.30;;;;;;;;;;4089326;35;20069;-85
2021/03/17 18:59:10;;;;;;;9.93;2.40;;;;;;;;;;4092920;34;20462;-84
2021/03/17 19:01:46;;;;;;;9.18;2.97;;;;;;;;;;4100938;34;20065;-85
2021/03/17 19:04:26;;;;;;;7.12;2.15;;;;;;;;;;4047741;35;20063;-86
2021/03/17 19:07:03;;;;;;;5.15;1.87;;;;;;;;;;4070777;35;20069;-85
2021/03/17 19:09:57;;;;;;;6.62;2.20;;;;;;;;;;4070791;35;20066;-85
2021/03/17 19:12:52;;;;;;;8.48;2.65;;;;;;;;;;4052112;35;20061;-86
2021/03/17 19:15:40;;;;;;;10.07;2.30;;;;;;;;;;4068703;35;20108;-85
2021/03/17 19:18:15;;;;;;;16.17;2.87;;;;;;;;;;4059493;35;20086;-83
2021/03/17 19:21:08;;;;;;;9.77;2.58;;;;;;;;;;4073678;35;20113;-84
2021/03/17 19:23:44;;;;;;;6.78;2.10;;;;;;;;;;4079940;35;20058;-85
2021/03/17 19:26:13;;;;;;;7.45;2.37;;;;;;;;;;4073239;35;20112;-87
2021/03/17 19:28:45;;;;;;;7.28;2.12;;;;;;;;;;4078503;35;20070;-85
2021/03/17 19:31:18;;;;;;;7.65;2.90;;;;;;;;;;4062032;35;20070;-86
2021/03/17 19:34:03;;;;;;;5.62;2.40;;;;;;;;;;4063342;35;20654;-86
2021/03/17 19:36:37;;;;;;;10.48;2.67;;;;;;;;;;4052216;35;20133;-85
2021/03/17 19:39:16;;;;;;;8.73;2.37;;;;;;;;;;4069138;35;20070;-84
2021/03/17 19:41:55;;;;;;;9.43;2.60;;;;;;;;;;4071883;35;20091;-86
2021/03/17 19:44:46;;;;;;;12.75;2.65;;;;;;;;;;4061823;35;20824;-85
2021/03/17 19:47:18;;;;;;;10.82;2.95;;;;;;;;;;4063800;35;20070;-85
2021/03/17 19:50:06;;;;;;;8.05;2.20;;;;;;;;;;4076366;35;20151;-84
2021/03/17 19:53:05;;;;;;;8.40;1.90;;;;;;;;;;4076048;35;20070;-85
2021/03/17 19:55:50;;;;;;;7.18;2.22;;;;;;;;;;4075461;35;20042;-85
2021/03/17 19:58:38;;;;;;;4.30;1.95;;;;;;;;;;4077732;35;20073;-85
2021/03/17 20:01:14;;;;;;;9.07;2.72;;;;;;;;;;4086563;35;20057;-84
2021/03/17 20:03:56;;;;;;;5.15;1.83;;;;;;;;;;4092529;34;20468;-86
2021/03/17 20:07:07;;;;;;;7.90;2.37;;;;;;;;;;4075713;35;20103;-85
2021/03/17 20:09:46;;;;;;;9.13;2.10;;;;;;;;;;4077594;35;20073;-84